首页
METAR-TAF:

METAR-TAF

机场 :

韦斯特曼纳群岛, 冰岛

纬度: 63-24N, 经度: 020-17W, 海拔: 118米

当前天气观测

该预报发布于8小时和20分钟前的19:00 UTC
风速23节,风向,有时为37节阵风
温度 8°C
湿度 93%
气压 1003 hPa
能見度: 1000
阴天层高于200英尺
毛毛雨, 雾,

METAR: BIVM 131900Z 09023G37KT 1000 DZ FG OVC002 08/07 Q1003

时间: 03:20 (03:20 UTC)

预报

该预报发布于11小时和19分钟前的16:01 UTC
预报有效从13日的 17点(UTC)到 13日的 20点(UTC)
风速32节,风向,有时为42节阵风
能見度: 4500
阴天层高于800英尺
毛毛雨, 雨, 轻雾
短暂存在
从 13日的 17点(UTC)到 13日的 20点(UTC)
能見度: 0500
阴天层高于200英尺
毛毛雨, 雨, 雾,

TAF: BIVM 131601Z 1317/1320 08032G42KT 4500 DZRA BR OVC008 TEMPO 1317/1320 0500 DZRA FG OVC002

超过4000个机场的气象观测和天气预报(METAR&TAF报告)。

可查询的气象台以黄色和红色小点在地图上表示。

将鼠标移到小点上方,可查看气象台名称。

然后点击查看天气观测和预报。

如需切换地图:点击带黑十字的绿色按钮放大地图;点击带横线的绿色按钮缩小地图;或者点击绿色箭头查看邻近地区的地图。


METAR-TAF: